createdAt,value
2022-11-03T00:02:29.006Z,23.73
2022-11-03T00:04:57.315Z,26.33
2022-11-03T00:07:24.239Z,25.25
2022-11-03T00:09:53.255Z,28.33
2022-11-03T00:12:20.377Z,32.00
2022-11-03T00:14:47.312Z,29.48
2022-11-03T00:17:14.308Z,24.95
2022-11-03T00:19:45.448Z,29.35
2022-11-03T00:22:13.414Z,26.45
2022-11-03T00:24:41.275Z,29.33
2022-11-03T00:27:09.221Z,28.77
2022-11-03T00:29:50.188Z,25.95
2022-11-03T00:32:18.238Z,25.13
2022-11-03T00:34:45.371Z,22.80
2022-11-03T00:37:26.740Z,21.33
2022-11-03T00:40:01.068Z,27.92
2022-11-03T00:42:43.798Z,23.40
2022-11-03T00:45:12.839Z,22.33
2022-11-03T00:48:01.988Z,20.42
2022-11-03T00:50:50.755Z,22.55
2022-11-03T00:53:18.794Z,22.95
2022-11-03T00:55:50.664Z,26.08
2022-11-03T00:58:33.343Z,21.10
2022-11-03T01:01:03.879Z,21.92
2022-11-03T01:03:32.494Z,24.15
2022-11-03T01:06:19.220Z,19.52
2022-11-03T01:08:46.497Z,22.33
2022-11-03T01:11:43.018Z,18.98
2022-11-03T01:14:16.147Z,19.77
2022-11-03T01:16:44.448Z,24.77
2022-11-03T01:19:14.474Z,20.08
2022-11-03T01:21:41.593Z,45.22
2022-11-03T01:24:22.999Z,36.25
2022-11-03T01:26:50.414Z,21.73
2022-11-03T01:29:19.008Z,20.33
2022-11-03T01:31:51.125Z,22.05
2022-11-03T01:34:21.474Z,18.13
2022-11-03T01:36:49.891Z,18.42
2022-11-03T01:39:19.984Z,17.02
2022-11-03T01:41:52.933Z,17.73
2022-11-03T01:44:43.101Z,24.17
2022-11-03T01:47:20.543Z,22.08
2022-11-03T01:49:50.495Z,20.70
2022-11-03T01:52:37.963Z,20.08
2022-11-03T01:55:09.521Z,22.77
2022-11-03T01:57:48.004Z,25.90
2022-11-03T02:00:16.422Z,20.77
2022-11-03T02:02:45.918Z,27.42
2022-11-03T02:05:47.669Z,24.35
2022-11-03T02:08:23.206Z,17.33
2022-11-03T02:10:52.138Z,21.55
2022-11-03T02:13:24.100Z,25.08
2022-11-03T02:15:58.349Z,20.85
2022-11-03T02:18:31.887Z,23.30
2022-11-03T02:24:17.255Z,18.73
2022-11-03T02:26:49.192Z,21.85
2022-11-03T02:29:18.213Z,19.40
2022-11-03T02:31:57.468Z,16.77
2022-11-03T02:34:37.330Z,17.30
2022-11-03T02:37:14.518Z,15.52
2022-11-03T02:39:54.870Z,17.73
2022-11-03T02:42:24.791Z,19.25
2022-11-03T02:44:55.037Z,14.10
2022-11-03T02:47:33.059Z,13.65
2022-11-03T02:50:04.902Z,16.02
2022-11-03T02:52:38.570Z,20.08
2022-11-03T02:55:27.066Z,16.35
2022-11-03T02:58:03.468Z,17.77
2022-11-03T03:00:46.276Z,15.45
2022-11-03T03:03:37.490Z,13.82
2022-11-03T03:06:09.948Z,13.65
2022-11-03T03:08:44.075Z,15.10
2022-11-03T03:11:13.615Z,15.32
2022-11-03T03:13:44.958Z,15.45
2022-11-03T03:16:31.850Z,17.73
2022-11-03T03:19:24.313Z,19.40
2022-11-03T03:21:55.307Z,13.90
2022-11-03T03:24:51.816Z,15.30
2022-11-03T03:27:24.122Z,11.82
2022-11-03T03:30:05.413Z,13.88
2022-11-03T03:32:40.633Z,16.98
2022-11-03T03:35:10.299Z,20.60
2022-11-03T03:37:41.044Z,16.83
2022-11-03T03:40:12.515Z,15.93
2022-11-03T03:42:46.023Z,17.48
2022-11-03T03:47:49.959Z,25.30
2022-11-03T03:50:21.728Z,23.77
2022-11-03T03:52:57.583Z,19.05
2022-11-03T03:55:41.146Z,19.35
2022-11-03T03:58:12.118Z,16.80
2022-11-03T04:00:42.059Z,61.45
2022-11-03T04:03:18.719Z,61.97
2022-11-03T04:05:46.480Z,19.92
2022-11-03T04:08:17.643Z,18.70
2022-11-03T04:11:07.124Z,14.40
2022-11-03T04:13:52.680Z,17.92
2022-11-03T04:16:40.324Z,16.13
2022-11-03T04:19:30.688Z,14.45
2022-11-03T04:22:18.589Z,16.08
2022-11-03T04:24:54.866Z,16.92
2022-11-03T04:27:33.967Z,18.33
2022-11-03T04:30:10.157Z,14.57
2022-11-03T04:32:55.213Z,14.57
2022-11-03T04:35:28.966Z,52.38
2022-11-03T04:38:01.357Z,13.18
2022-11-03T04:40:33.666Z,68.75
2022-11-03T04:43:04.893Z,16.15
2022-11-03T04:46:09.586Z,16.98
2022-11-03T04:48:38.848Z,14.52
2022-11-03T04:51:25.583Z,13.40
2022-11-03T04:54:02.305Z,16.38
2022-11-03T04:56:35.279Z,17.40
2022-11-03T04:59:10.699Z,12.98
2022-11-03T05:01:39.091Z,12.52
2022-11-03T05:04:16.861Z,14.07
2022-11-03T05:06:51.740Z,15.98
2022-11-03T05:09:27.045Z,17.92
2022-11-03T05:11:55.373Z,13.55
2022-11-03T05:14:31.394Z,12.15
2022-11-03T05:17:02.369Z,12.90
2022-11-03T05:19:42.861Z,13.18
2022-11-03T05:22:19.169Z,15.10
2022-11-03T05:25:01.260Z,15.85
2022-11-03T05:27:28.415Z,16.13
2022-11-03T05:30:05.064Z,13.48
2022-11-03T05:32:34.733Z,14.07
2022-11-03T05:35:12.095Z,14.25
2022-11-03T05:37:42.345Z,13.20
2022-11-03T05:40:24.710Z,17.75
2022-11-03T05:43:02.687Z,18.73
2022-11-03T05:45:40.225Z,18.42
2022-11-03T05:48:45.086Z,25.58
2022-11-03T05:51:53.780Z,17.35
2022-11-03T05:54:29.426Z,14.77
2022-11-03T05:56:59.109Z,15.55
2022-11-03T05:59:29.943Z,17.85
2022-11-03T06:02:22.116Z,20.63
2022-11-03T06:04:49.579Z,21.27
2022-11-03T06:07:27.090Z,18.30
2022-11-03T06:09:56.158Z,21.98
2022-11-03T06:12:25.233Z,20.08
2022-11-03T06:14:53.422Z,24.35
2022-11-03T06:17:26.523Z,26.23
2022-11-03T06:20:01.154Z,28.80
2022-11-03T06:22:40.934Z,29.02
2022-11-03T06:25:29.773Z,30.70
2022-11-03T06:28:05.010Z,28.15
2022-11-03T06:33:38.355Z,28.45
2022-11-03T06:36:17.033Z,35.65
2022-11-03T06:39:21.778Z,36.42
2022-11-03T06:41:48.738Z,36.38
2022-11-03T06:44:28.914Z,34.10
2022-11-03T06:47:00.274Z,33.97
2022-11-03T06:49:36.574Z,34.80
2022-11-03T06:52:23.117Z,37.15
2022-11-03T06:55:10.863Z,36.13
2022-11-03T06:57:46.423Z,36.38
2022-11-03T07:00:40.287Z,35.45
2022-11-03T07:03:38.146Z,41.42
2022-11-03T07:06:32.082Z,45.30
2022-11-03T07:09:05.312Z,43.83
2022-11-03T07:11:51.128Z,38.13
2022-11-03T07:14:33.414Z,33.20
2022-11-03T07:17:03.681Z,36.28
2022-11-03T07:19:43.078Z,34.08
2022-11-03T07:22:22.249Z,39.97
2022-11-03T07:24:52.334Z,51.03
2022-11-03T07:27:27.293Z,38.30
2022-11-03T07:30:00.933Z,36.55
2022-11-03T07:35:18.940Z,24.83
2022-11-03T07:37:50.390Z,26.00
2022-11-03T07:40:28.568Z,24.95
2022-11-03T07:43:01.006Z,23.67
2022-11-03T07:45:47.877Z,21.27
2022-11-03T07:48:29.429Z,19.10
2022-11-03T07:51:31.284Z,27.77
2022-11-03T07:54:17.377Z,19.98
2022-11-03T07:56:49.378Z,25.40
2022-11-03T07:59:28.773Z,22.65
2022-11-03T08:01:57.955Z,20.27
2022-11-03T08:04:30.727Z,19.10
2022-11-03T08:06:57.819Z,19.70
2022-11-03T08:09:24.893Z,21.83
2022-11-03T08:11:54.921Z,21.35
2022-11-03T08:14:22.236Z,18.42
2022-11-03T08:16:49.611Z,21.30
2022-11-03T08:19:24.625Z,17.52
2022-11-03T08:21:53.639Z,20.38
2022-11-03T08:24:24.793Z,21.17
2022-11-03T08:26:53.982Z,22.17
2022-11-03T08:29:22.938Z,20.65
2022-11-03T08:31:49.941Z,18.80
2022-11-03T08:34:16.917Z,16.52
2022-11-03T08:36:43.795Z,20.88
2022-11-03T08:39:11.872Z,18.15
2022-11-03T08:41:44.955Z,17.45
2022-11-03T08:44:13.942Z,15.05
2022-11-03T08:46:43.069Z,17.33
2022-11-03T08:49:12.176Z,18.30
2022-11-03T08:51:44.204Z,18.27
2022-11-03T08:54:11.897Z,14.00
2022-11-03T08:56:39.886Z,13.48
2022-11-03T08:59:06.818Z,14.63
2022-11-03T09:01:36.920Z,14.48
2022-11-03T09:04:05.220Z,14.27
2022-11-03T09:06:32.300Z,14.73
2022-11-03T09:11:48.534Z,17.98
2022-11-03T09:14:21.410Z,12.55
2022-11-03T09:16:55.363Z,15.10
2022-11-03T09:19:32.460Z,17.17
2022-11-03T09:22:00.568Z,16.08
2022-11-03T09:24:27.647Z,12.77
2022-11-03T09:26:59.494Z,11.85
2022-11-03T09:29:58.596Z,13.50
2022-11-03T09:32:23.811Z,12.97
2022-11-03T09:34:51.108Z,12.75
2022-11-03T09:37:20.773Z,17.45
2022-11-03T09:39:49.479Z,14.27
2022-11-03T09:42:17.753Z,12.52
2022-11-03T09:44:49.336Z,11.55
2022-11-03T09:47:41.915Z,15.00
2022-11-03T09:50:15.646Z,16.15
2022-11-03T09:55:23.578Z,19.00
2022-11-03T09:57:53.225Z,13.43
2022-11-03T10:00:32.214Z,11.35
2022-11-03T10:03:00.377Z,16.45
2022-11-03T10:05:28.558Z,14.65
2022-11-03T10:08:04.512Z,12.10
2022-11-03T10:10:32.758Z,16.92
2022-11-03T10:13:09.729Z,16.75
2022-11-03T10:15:36.894Z,12.70
2022-11-03T10:18:03.973Z,15.52
2022-11-03T10:20:34.027Z,12.45
2022-11-03T10:23:01.556Z,17.75
2022-11-03T10:26:08.339Z,16.40
2022-11-03T10:28:36.444Z,19.42
2022-11-03T10:31:12.724Z,12.68
2022-11-03T10:33:52.327Z,15.07
2022-11-03T10:36:23.276Z,15.65
2022-11-03T10:38:50.266Z,17.35
2022-11-03T10:41:32.564Z,18.10
2022-11-03T10:44:11.812Z,17.13
2022-11-03T10:46:59.949Z,12.52
2022-11-03T10:49:39.189Z,14.65
2022-11-03T10:52:31.174Z,16.17
2022-11-03T10:54:59.742Z,17.38
2022-11-03T10:57:27.872Z,15.02
2022-11-03T10:59:55.883Z,14.50
2022-11-03T11:02:32.107Z,15.48
2022-11-03T11:05:03.666Z,15.30
2022-11-03T11:07:40.693Z,13.25
2022-11-03T11:10:21.080Z,13.05
2022-11-03T11:13:07.156Z,13.35
2022-11-03T11:15:52.071Z,13.10
2022-11-03T11:18:31.068Z,16.00
2022-11-03T11:21:18.165Z,13.40
2022-11-03T11:23:53.146Z,15.95
2022-11-03T11:26:26.239Z,16.83
2022-11-03T11:29:11.459Z,15.30
2022-11-03T11:31:43.236Z,17.23
2022-11-03T11:34:19.970Z,16.55
2022-11-03T11:37:11.201Z,16.17
2022-11-03T11:39:44.451Z,16.02
2022-11-03T11:42:19.845Z,17.75
2022-11-03T11:45:07.279Z,12.60
2022-11-03T11:47:49.642Z,14.90
2022-11-03T11:50:26.385Z,14.43
2022-11-03T11:53:12.786Z,13.00
2022-11-03T11:55:59.321Z,14.15
2022-11-03T11:58:47.985Z,16.15
2022-11-03T12:01:35.383Z,17.17
2022-11-03T12:04:08.381Z,13.25
2022-11-03T12:06:41.852Z,16.83
2022-11-03T12:09:22.248Z,14.73
2022-11-03T12:11:56.509Z,13.20
2022-11-03T12:14:34.571Z,13.13
2022-11-03T12:17:16.670Z,14.50
2022-11-03T12:19:54.389Z,13.27
2022-11-03T12:22:32.214Z,10.32
2022-11-03T12:25:08.693Z,13.48
2022-11-03T12:27:54.237Z,10.57
2022-11-03T12:30:23.196Z,13.38
2022-11-03T12:32:52.329Z,9.48
2022-11-03T12:35:21.416Z,11.85
2022-11-03T12:37:48.585Z,9.95
2022-11-03T12:40:16.639Z,11.40
2022-11-03T12:42:52.947Z,10.27
2022-11-03T12:45:27.975Z,9.73
2022-11-03T12:47:56.366Z,10.68
2022-11-03T12:50:26.727Z,10.65
2022-11-03T12:52:55.689Z,10.75
2022-11-03T12:58:02.390Z,12.43
2022-11-03T13:00:31.607Z,8.68
2022-11-03T13:03:23.302Z,9.15
2022-11-03T13:05:50.218Z,7.93
2022-11-03T13:08:23.235Z,11.27
2022-11-03T13:11:23.218Z,11.88
2022-11-03T13:13:53.334Z,7.72
2022-11-03T13:16:20.418Z,7.30
2022-11-03T13:18:49.010Z,9.95
2022-11-03T13:21:42.766Z,10.00
2022-11-03T13:24:09.782Z,9.20
2022-11-03T13:26:39.748Z,8.73
2022-11-03T13:29:06.921Z,11.07
2022-11-03T13:31:36.029Z,7.93
2022-11-03T13:34:08.080Z,9.32
2022-11-03T13:36:36.180Z,6.35
2022-11-03T13:39:04.397Z,8.90
2022-11-03T13:41:34.447Z,7.95
2022-11-03T13:44:01.449Z,7.70
2022-11-03T13:46:35.780Z,7.88
2022-11-03T13:51:50.433Z,7.95
2022-11-03T13:59:52.217Z,9.55
2022-11-03T14:05:17.466Z,9.40
2022-11-03T14:07:47.773Z,7.80
2022-11-03T14:10:14.788Z,7.68
2022-11-03T14:12:41.959Z,7.20
2022-11-03T14:15:12.358Z,6.43
2022-11-03T14:17:40.815Z,7.32
2022-11-03T14:20:13.909Z,9.85
2022-11-03T14:22:42.077Z,6.72
2022-11-03T14:25:10.432Z,11.43
2022-11-03T14:27:44.538Z,11.38
2022-11-03T14:30:17.861Z,8.00
2022-11-03T14:32:44.948Z,7.25
2022-11-03T14:35:15.209Z,8.02
2022-11-03T14:37:44.885Z,9.07
2022-11-03T14:40:33.930Z,7.57
2022-11-03T14:43:02.144Z,10.30
2022-11-03T14:45:30.165Z,8.68
2022-11-03T14:47:57.297Z,8.70
2022-11-03T14:50:25.473Z,8.55
2022-11-03T14:52:54.908Z,14.18
2022-11-03T14:55:25.328Z,12.15
2022-11-03T14:57:53.418Z,9.20
2022-11-03T15:00:20.640Z,10.80
2022-11-03T15:02:49.570Z,6.85
2022-11-03T15:05:34.958Z,8.32
2022-11-03T15:08:02.068Z,10.45
2022-11-03T15:10:34.025Z,12.98
2022-11-03T15:13:01.103Z,12.43
2022-11-03T15:15:29.268Z,9.98
2022-11-03T15:18:01.628Z,11.82
2022-11-03T15:20:31.858Z,14.77
2022-11-03T15:25:46.398Z,18.75
2022-11-03T15:28:18.617Z,22.20
2022-11-03T15:30:45.544Z,110.63
2022-11-03T15:36:07.588Z,20.27
2022-11-03T15:38:45.907Z,15.05
2022-11-03T15:41:15.946Z,15.85
2022-11-03T15:43:50.736Z,13.30
2022-11-03T15:46:21.905Z,20.50
2022-11-03T15:48:53.985Z,15.27
2022-11-03T15:51:26.281Z,14.45
2022-11-03T15:53:58.446Z,13.65
2022-11-03T15:56:27.496Z,16.83
2022-11-03T15:58:56.442Z,14.30
2022-11-03T16:01:26.299Z,14.10
2022-11-03T16:04:00.277Z,15.50
2022-11-03T16:06:53.700Z,17.00
2022-11-03T16:09:17.858Z,23.48
2022-11-03T16:11:48.087Z,32.45
2022-11-03T16:14:17.184Z,24.20
2022-11-03T16:16:50.723Z,21.73
2022-11-03T16:19:19.941Z,27.55
2022-11-03T16:21:52.103Z,19.25
2022-11-03T16:24:19.577Z,27.88
2022-11-03T16:26:53.371Z,24.20
2022-11-03T16:31:58.122Z,24.30
2022-11-03T16:34:31.851Z,26.08
2022-11-03T16:39:41.765Z,26.25
2022-11-03T16:42:16.296Z,22.88
2022-11-03T16:44:43.544Z,23.50
2022-11-03T16:47:12.718Z,28.88
2022-11-03T16:49:43.909Z,30.95
2022-11-03T16:52:11.146Z,26.38
2022-11-03T16:54:39.604Z,27.30
2022-11-03T16:57:37.472Z,35.03
2022-11-03T17:00:06.594Z,31.17
2022-11-03T17:02:34.959Z,35.00
2022-11-03T17:05:01.991Z,32.42
2022-11-03T17:07:31.513Z,36.80
2022-11-03T17:10:00.583Z,34.00
2022-11-03T17:12:39.456Z,39.67
2022-11-03T17:15:08.255Z,39.35
2022-11-03T17:17:36.187Z,42.10
2022-11-03T17:20:05.748Z,42.78
2022-11-03T17:22:33.761Z,40.45
2022-11-03T17:25:16.159Z,40.38
2022-11-03T17:27:52.424Z,40.35
2022-11-03T17:30:22.766Z,36.85
2022-11-03T17:32:54.249Z,37.53
2022-11-03T17:35:38.727Z,34.20
2022-11-03T17:38:16.333Z,33.33
2022-11-03T17:40:54.924Z,28.88
2022-11-03T17:43:53.608Z,27.58
2022-11-03T17:46:26.917Z,29.95
2022-11-03T17:48:57.308Z,30.70
2022-11-03T17:51:24.524Z,28.92
2022-11-03T17:54:06.669Z,34.15
2022-11-03T17:56:34.695Z,30.63
2022-11-03T17:59:03.982Z,23.13
2022-11-03T18:01:33.881Z,26.15
2022-11-03T18:06:53.371Z,31.95
2022-11-03T18:09:25.454Z,27.92
2022-11-03T18:12:11.672Z,25.38
2022-11-03T18:14:40.795Z,27.50
2022-11-03T18:17:17.209Z,28.85
2022-11-03T18:19:49.031Z,25.35
2022-11-03T18:22:20.622Z,31.77
2022-11-03T18:24:53.854Z,28.13
2022-11-03T18:27:25.463Z,29.38
2022-11-03T18:29:53.176Z,22.80
2022-11-03T18:32:21.384Z,30.52
2022-11-03T18:34:48.466Z,23.55
2022-11-03T18:37:16.032Z,24.38
2022-11-03T18:39:43.610Z,27.42
2022-11-03T18:42:16.939Z,29.17
2022-11-03T18:44:50.161Z,24.50
2022-11-03T18:47:20.959Z,24.33
2022-11-03T18:49:49.502Z,26.13
2022-11-03T18:52:24.152Z,27.33
2022-11-03T18:54:53.690Z,31.83
2022-11-03T18:57:33.999Z,24.17
2022-11-03T19:00:05.720Z,23.75
2022-11-03T19:02:41.757Z,29.98
2022-11-03T19:05:32.290Z,26.08
2022-11-03T19:08:03.332Z,26.98
2022-11-03T19:10:46.170Z,26.13
2022-11-03T19:13:24.721Z,28.30
2022-11-03T19:15:57.516Z,30.67
2022-11-03T19:18:28.702Z,24.92
2022-11-03T19:21:40.407Z,28.27
2022-11-03T19:24:16.039Z,26.95
2022-11-03T19:27:03.253Z,23.48
2022-11-03T19:29:38.908Z,27.92
2022-11-03T19:32:17.276Z,23.08
2022-11-03T19:34:46.609Z,26.85
2022-11-03T19:37:35.368Z,32.72
2022-11-03T19:40:09.987Z,32.28
2022-11-03T19:45:42.750Z,50.75
2022-11-03T19:48:24.279Z,40.58
2022-11-03T19:51:06.616Z,37.05
2022-11-03T19:53:37.783Z,32.20
2022-11-03T19:56:12.474Z,32.78
2022-11-03T19:58:41.111Z,30.20
2022-11-03T20:01:10.107Z,29.20
2022-11-03T20:03:52.880Z,33.25
2022-11-03T20:06:21.794Z,35.40
2022-11-03T20:09:09.232Z,36.00
2022-11-03T20:11:38.738Z,34.05
2022-11-03T20:14:07.864Z,30.10
2022-11-03T20:16:37.097Z,30.13
2022-11-03T20:19:04.608Z,28.13
2022-11-03T20:21:34.588Z,33.10
2022-11-03T20:24:15.710Z,31.65
2022-11-03T20:26:43.779Z,31.13
2022-11-03T20:29:16.215Z,31.38
2022-11-03T20:31:46.154Z,30.80
2022-11-03T20:34:33.710Z,37.83
2022-11-03T20:37:05.797Z,33.90
2022-11-03T20:39:33.531Z,36.28
2022-11-03T20:42:08.885Z,28.80
2022-11-03T20:44:44.034Z,33.28
2022-11-03T20:47:44.463Z,34.95
2022-11-03T20:50:27.262Z,35.17
2022-11-03T20:53:03.474Z,36.53
2022-11-03T20:55:43.466Z,32.08
2022-11-03T20:58:18.229Z,34.78
2022-11-03T21:00:48.947Z,30.95
2022-11-03T21:03:58.696Z,29.25
2022-11-03T21:06:33.655Z,29.98
2022-11-03T21:09:44.374Z,32.55
2022-11-03T21:12:14.655Z,37.10
2022-11-03T21:15:20.015Z,33.75
2022-11-03T21:18:08.879Z,30.25
2022-11-03T21:20:37.533Z,33.75
2022-11-03T21:23:28.860Z,31.55
2022-11-03T21:26:01.248Z,31.63
2022-11-03T21:28:35.738Z,36.33
2022-11-03T21:31:11.490Z,28.95
2022-11-03T21:33:59.303Z,31.05
2022-11-03T21:36:28.518Z,33.60
2022-11-03T21:39:12.367Z,33.60
2022-11-03T21:42:03.494Z,29.77
2022-11-03T21:44:37.006Z,31.65
2022-11-03T21:47:08.074Z,33.22
2022-11-03T21:49:47.358Z,32.88
2022-11-03T21:52:34.055Z,28.67
2022-11-03T21:55:10.078Z,31.90
2022-11-03T21:57:47.271Z,33.83
2022-11-03T22:01:09.327Z,32.30
2022-11-03T22:03:51.530Z,31.98
2022-11-03T22:06:35.905Z,26.60
2022-11-03T22:09:10.577Z,31.05
2022-11-03T22:11:38.448Z,33.53
2022-11-03T22:14:50.639Z,31.58
2022-11-03T22:17:24.348Z,31.80
2022-11-03T22:23:09.535Z,32.45
2022-11-03T22:25:57.185Z,31.50
2022-11-03T22:28:25.398Z,32.53
2022-11-03T22:31:11.779Z,32.95
2022-11-03T22:33:58.824Z,29.25
2022-11-03T22:36:26.049Z,24.80
2022-11-03T22:39:11.650Z,24.50
2022-11-03T22:41:59.626Z,29.92
2022-11-03T22:44:49.128Z,25.67
2022-11-03T22:47:18.787Z,24.00
2022-11-03T22:49:47.257Z,24.58
2022-11-03T22:52:15.444Z,27.02
2022-11-03T22:54:49.338Z,25.73
2022-11-03T22:57:16.335Z,26.77
2022-11-03T22:59:45.626Z,24.92
2022-11-03T23:02:16.855Z,23.73
2022-11-03T23:04:46.965Z,29.48
2022-11-03T23:07:14.165Z,28.08
2022-11-03T23:09:45.749Z,27.25
2022-11-03T23:12:15.874Z,27.67
2022-11-03T23:15:02.458Z,26.52
2022-11-03T23:17:49.432Z,23.05
2022-11-03T23:20:35.855Z,28.80
2022-11-03T23:23:02.920Z,25.15
2022-11-03T23:25:32.279Z,28.70
2022-11-03T23:28:05.579Z,25.52
2022-11-03T23:30:33.689Z,28.88
2022-11-03T23:33:01.584Z,27.83
2022-11-03T23:35:29.559Z,24.88
2022-11-03T23:37:56.479Z,25.90
2022-11-03T23:40:27.426Z,28.83
2022-11-03T23:42:57.465Z,24.50
2022-11-03T23:45:44.237Z,26.08
2022-11-03T23:48:29.897Z,22.38
2022-11-03T23:51:02.796Z,23.70
2022-11-03T23:53:34.782Z,21.85
2022-11-03T23:56:20.103Z,26.10
2022-11-03T23:59:00.788Z,20.60
